createdAt,value
2022-12-24T00:01:22.596Z,100516.88
2022-12-24T00:03:50.469Z,100516.03
2022-12-24T00:06:21.009Z,100517.03
2022-12-24T00:08:48.863Z,100519.78
2022-12-24T00:11:18.340Z,100523.41
2022-12-24T00:13:46.015Z,100524.19
2022-12-24T00:16:13.679Z,100529.44
2022-12-24T00:18:45.977Z,100528.66
2022-12-24T00:21:14.656Z,100524.19
2022-12-24T00:23:42.868Z,100532.22
2022-12-24T00:26:10.543Z,100529.88
2022-12-24T00:28:39.612Z,100530.72
2022-12-24T00:31:12.283Z,100538.44
2022-12-24T00:33:40.135Z,100533.19
2022-12-24T00:36:09.481Z,100535.97
2022-12-24T00:38:37.284Z,100538.44
2022-12-24T00:41:24.329Z,100536.81
2022-12-24T00:43:55.770Z,100538.72
2022-12-24T00:46:24.286Z,100546.59
2022-12-24T00:48:52.011Z,100542.84
2022-12-24T00:51:20.616Z,100543.56
2022-12-24T00:53:48.369Z,100540.78
2022-12-24T00:56:16.240Z,100540.66
2022-12-24T00:58:43.795Z,100543.00
2022-12-24T01:01:13.337Z,100547.16
2022-12-24T01:03:41.306Z,100546.19
2022-12-24T01:06:10.669Z,100540.50
2022-12-24T01:08:38.477Z,100539.25
2022-12-24T01:11:07.336Z,100543.13
2022-12-24T01:13:35.261Z,100546.28
2022-12-24T01:16:03.337Z,100539.75
2022-12-24T01:18:32.272Z,100548.06
2022-12-24T01:21:01.498Z,100544.88
2022-12-24T01:23:29.951Z,100547.22
2022-12-24T01:26:01.429Z,100546.78
2022-12-24T01:28:29.460Z,100544.81
2022-12-24T01:30:57.096Z,100552.28
2022-12-24T01:33:24.769Z,100560.72
2022-12-24T01:35:53.692Z,100565.53
2022-12-24T01:38:21.239Z,100560.00
2022-12-24T01:41:02.715Z,100564.97
2022-12-24T01:43:32.738Z,100567.31
2022-12-24T01:46:02.913Z,100571.31
2022-12-24T01:48:36.805Z,100580.72
2022-12-24T01:51:15.403Z,100578.47
2022-12-24T01:53:46.187Z,100586.91
2022-12-24T01:56:14.270Z,100584.66
2022-12-24T01:58:47.172Z,100582.72
2022-12-24T02:01:14.865Z,100586.88
2022-12-24T02:03:42.640Z,100577.97
2022-12-24T02:06:16.459Z,100580.50
2022-12-24T02:08:44.235Z,100586.41
2022-12-24T02:11:13.995Z,100588.91
2022-12-24T02:13:43.318Z,100594.31
2022-12-24T02:16:22.319Z,100599.44
2022-12-24T02:18:58.183Z,100596.94
2022-12-24T02:21:41.615Z,100589.59
2022-12-24T02:24:49.120Z,100591.09
2022-12-24T02:27:26.991Z,100599.00
2022-12-24T02:30:09.503Z,100594.56
2022-12-24T02:32:46.434Z,100598.69
2022-12-24T02:35:20.183Z,100606.47
2022-12-24T02:37:53.822Z,100600.38
2022-12-24T02:40:26.335Z,100609.22
2022-12-24T02:42:58.768Z,100610.22
2022-12-24T02:45:31.839Z,100601.63
2022-12-24T02:48:01.163Z,100618.25
2022-12-24T02:50:29.516Z,100617.41
2022-12-24T02:52:57.163Z,100613.13
2022-12-24T02:55:32.848Z,100610.50
2022-12-24T02:58:17.799Z,100609.50
2022-12-24T03:00:56.445Z,100622.66
2022-12-24T03:03:35.590Z,100615.47
2022-12-24T03:06:14.981Z,100618.91
2022-12-24T03:08:49.634Z,100618.78
2022-12-24T03:11:19.660Z,100621.41
2022-12-24T03:13:48.945Z,100613.34
2022-12-24T03:16:22.725Z,100620.28
2022-12-24T03:18:52.029Z,100626.22
2022-12-24T03:21:25.081Z,100629.69
2022-12-24T03:23:52.847Z,100630.38
2022-12-24T03:26:21.388Z,100630.91
2022-12-24T03:28:49.969Z,100641.44
2022-12-24T03:31:19.841Z,100640.34
2022-12-24T03:33:48.622Z,100646.28
2022-12-24T03:36:16.623Z,100652.19
2022-12-24T03:38:44.245Z,100637.09
2022-12-24T03:41:11.828Z,100653.59
2022-12-24T03:43:39.404Z,100649.94
2022-12-24T03:46:08.727Z,100651.34
2022-12-24T03:48:37.666Z,100641.78
2022-12-24T03:51:06.023Z,100643.31
2022-12-24T03:53:33.595Z,100650.22
2022-12-24T03:56:01.181Z,100650.06
2022-12-24T03:58:28.779Z,100646.31
2022-12-24T04:00:56.407Z,100645.34
2022-12-24T04:03:24.039Z,100649.63
2022-12-24T04:06:02.950Z,100651.97
2022-12-24T04:08:30.491Z,100645.88
2022-12-24T04:10:58.101Z,100644.91
2022-12-24T04:13:26.031Z,100653.63
2022-12-24T04:15:59.147Z,100662.19
2022-12-24T04:18:26.776Z,100654.16
2022-12-24T04:20:54.688Z,100661.38
2022-12-24T04:23:23.722Z,100667.63
2022-12-24T04:25:51.796Z,100661.53
2022-12-24T04:28:19.714Z,100663.03
2022-12-24T04:30:47.311Z,100661.66
2022-12-24T04:33:14.850Z,100661.38
2022-12-24T04:35:42.957Z,100673.72
2022-12-24T04:38:11.207Z,100668.47
2022-12-24T04:40:40.099Z,100669.13
2022-12-24T04:43:07.688Z,100670.78
2022-12-24T04:45:35.338Z,100670.78
2022-12-24T04:48:02.933Z,100668.00
2022-12-24T04:50:30.491Z,100672.31
2022-12-24T04:52:58.080Z,100673.13
2022-12-24T04:55:25.667Z,100674.63
2022-12-24T04:57:54.537Z,100679.06
2022-12-24T05:00:22.377Z,100687.50
2022-12-24T05:02:50.100Z,100689.16
2022-12-24T05:05:17.988Z,100687.88
2022-12-24T05:07:45.577Z,100698.13
2022-12-24T05:10:13.184Z,100689.25
2022-12-24T05:12:40.767Z,100692.41
2022-12-24T05:15:10.352Z,100699.22
2022-12-24T05:17:37.938Z,100693.66
2022-12-24T05:20:06.477Z,100695.00
2022-12-24T05:22:51.719Z,100698.31
2022-12-24T05:25:37.059Z,100698.16
2022-12-24T05:28:04.775Z,100699.66
2022-12-24T05:30:33.990Z,100709.91
2022-12-24T05:33:01.565Z,100706.31
2022-12-24T05:35:29.212Z,100712.25
2022-12-24T05:37:59.089Z,100702.38
2022-12-24T05:40:26.816Z,100702.91
2022-12-24T05:42:54.409Z,100702.78
2022-12-24T05:45:21.940Z,100710.53
2022-12-24T05:47:50.851Z,100712.84
2022-12-24T05:50:18.561Z,100710.09
2022-12-24T05:52:46.119Z,100710.09
2022-12-24T05:55:13.687Z,100708.44
2022-12-24T05:57:41.717Z,100714.53
2022-12-24T06:00:10.673Z,100714.53
2022-12-24T06:02:38.467Z,100712.56
2022-12-24T06:05:07.836Z,100714.06
2022-12-24T06:07:35.901Z,100712.44
2022-12-24T06:10:03.662Z,100714.91
2022-12-24T06:12:31.256Z,100714.91
2022-12-24T06:14:58.792Z,100718.38
2022-12-24T06:17:26.425Z,100718.38
2022-12-24T06:19:54.011Z,100713.94
2022-12-24T06:22:22.926Z,100713.09
2022-12-24T06:24:50.539Z,100719.50
2022-12-24T06:27:18.131Z,100722.97
2022-12-24T06:29:46.256Z,100721.97
2022-12-24T06:32:13.976Z,100733.22
2022-12-24T06:34:41.540Z,100739.44
2022-12-24T06:37:16.342Z,100738.47
2022-12-24T06:39:45.931Z,100738.47
2022-12-24T06:42:13.531Z,100744.59
2022-12-24T06:44:41.214Z,100739.97
2022-12-24T06:47:08.839Z,100738.31
2022-12-24T06:49:36.447Z,100734.72
2022-12-24T06:52:04.130Z,100741.78
2022-12-24T06:54:31.762Z,100746.91
2022-12-24T06:57:00.724Z,100743.44
2022-12-24T06:59:28.295Z,100753.16
2022-12-24T07:01:55.998Z,100754.13
2022-12-24T07:04:23.743Z,100753.44
2022-12-24T07:06:51.334Z,100762.19
2022-12-24T07:09:19.240Z,100763.03
2022-12-24T07:11:46.816Z,100768.44
2022-12-24T07:14:15.731Z,100771.72
2022-12-24T07:16:43.472Z,100781.31
2022-12-24T07:19:11.266Z,100785.91
2022-12-24T07:21:38.925Z,100779.94
2022-12-24T07:24:07.058Z,100781.78
2022-12-24T07:26:34.671Z,100780.78
2022-12-24T07:29:02.446Z,100788.13
2022-12-24T07:31:31.499Z,100790.75
2022-12-24T07:33:59.179Z,100781.91
2022-12-24T07:36:28.216Z,100785.66
2022-12-24T07:38:56.745Z,100784.16
2022-12-24T07:41:24.309Z,100780.97
2022-12-24T07:43:51.906Z,100790.13
2022-12-24T07:46:19.579Z,100788.78
2022-12-24T07:48:48.604Z,100793.53
2022-12-24T07:51:16.272Z,100796.00
2022-12-24T07:53:47.677Z,100790.72
2022-12-24T07:56:16.206Z,100807.91
2022-12-24T07:58:44.107Z,100824.53
2022-12-24T08:01:12.153Z,100826.34
2022-12-24T08:03:40.053Z,100817.47
2022-12-24T08:06:09.747Z,100821.75
2022-12-24T08:08:37.691Z,100823.56
2022-12-24T08:11:07.922Z,100821.31
2022-12-24T08:13:35.793Z,100818.16
2022-12-24T08:16:03.467Z,100837.44
2022-12-24T08:18:31.205Z,100833.97
2022-12-24T08:20:58.887Z,100837.72
2022-12-24T08:23:27.857Z,100844.63
2022-12-24T08:25:55.521Z,100841.31
2022-12-24T08:28:23.157Z,100850.06
2022-12-24T08:30:51.959Z,100842.97
2022-12-24T08:33:20.327Z,100851.84
2022-12-24T08:35:49.929Z,100850.06
2022-12-24T08:38:18.275Z,100853.34
2022-12-24T08:40:49.892Z,100854.75
2022-12-24T08:43:18.434Z,100855.72
2022-12-24T08:45:46.528Z,100853.22
2022-12-24T08:48:14.230Z,100857.38
2022-12-24T08:50:42.852Z,100854.88
2022-12-24T08:53:11.249Z,100859.84
2022-12-24T08:55:39.552Z,100853.06
2022-12-24T08:58:08.579Z,100856.91
2022-12-24T09:00:36.275Z,100859.44
2022-12-24T09:03:04.056Z,100853.50
2022-12-24T09:05:31.740Z,100857.63
2022-12-24T09:07:59.531Z,100856.34
2022-12-24T09:10:27.466Z,100848.16
2022-12-24T09:12:54.998Z,100849.81
2022-12-24T09:15:23.908Z,100844.13
2022-12-24T09:17:51.544Z,100856.16
2022-12-24T09:20:19.395Z,100865.59
2022-12-24T09:22:47.054Z,100866.81
2022-12-24T09:25:14.825Z,100871.63
2022-12-24T09:27:42.526Z,100876.31
2022-12-24T09:30:11.442Z,100879.94
2022-12-24T09:32:40.654Z,100872.56
2022-12-24T09:35:08.830Z,100882.81
2022-12-24T09:37:36.914Z,100885.28
2022-12-24T09:40:05.118Z,100897.06
2022-12-24T09:42:44.519Z,100904.25
2022-12-24T09:45:20.705Z,100898.25
2022-12-24T09:47:53.851Z,100897.00
2022-12-24T09:50:34.910Z,100900.03
2022-12-24T09:53:06.184Z,100905.00
2022-12-24T09:55:38.157Z,100912.19
2022-12-24T09:58:11.651Z,100907.75
2022-12-24T10:00:43.182Z,100913.81
2022-12-24T10:03:17.464Z,100913.53
2022-12-24T10:05:51.003Z,100910.47
2022-12-24T10:08:28.336Z,100906.97
2022-12-24T10:11:00.539Z,100902.69
2022-12-24T10:13:41.496Z,100894.94
2022-12-24T10:16:19.089Z,100914.59
2022-12-24T10:18:57.003Z,100913.72
2022-12-24T10:21:33.606Z,100917.56
2022-12-24T10:24:07.997Z,100921.38
2022-12-24T10:26:45.120Z,100928.88
2022-12-24T10:29:19.054Z,100922.47
2022-12-24T10:31:54.571Z,100932.84
2022-12-24T10:34:25.650Z,100931.03
2022-12-24T10:36:53.467Z,100932.19
2022-12-24T10:39:24.200Z,100931.59
2022-12-24T10:41:55.199Z,100929.16
2022-12-24T10:44:26.016Z,100935.66
2022-12-24T10:46:53.612Z,100928.41
2022-12-24T10:49:29.267Z,100922.31
2022-12-24T10:52:01.350Z,100939.19
2022-12-24T10:54:34.345Z,100936.41
2022-12-24T10:57:03.375Z,100935.88
2022-12-24T10:59:33.285Z,100927.28
2022-12-24T11:02:02.355Z,100934.22
2022-12-24T11:04:33.401Z,100940.94
2022-12-24T11:07:03.143Z,100939.66
2022-12-24T11:09:33.328Z,100937.38
2022-12-24T11:12:09.032Z,100950.41
2022-12-24T11:14:39.765Z,100941.38
2022-12-24T11:17:07.547Z,100943.88
2022-12-24T11:19:40.078Z,100938.75
2022-12-24T11:22:18.917Z,100935.72
2022-12-24T11:24:50.305Z,100932.09
2022-12-24T11:27:44.194Z,100928.63
2022-12-24T11:30:20.440Z,100928.94
2022-12-24T11:32:49.568Z,100933.91
2022-12-24T11:35:21.644Z,100925.53
2022-12-24T11:37:49.708Z,100924.41
2022-12-24T11:40:22.565Z,100918.66
2022-12-24T11:42:53.181Z,100928.16
2022-12-24T11:45:25.864Z,100937.50
2022-12-24T11:47:54.655Z,100921.03
2022-12-24T11:50:27.222Z,100917.53
2022-12-24T11:53:03.603Z,100924.69
2022-12-24T11:55:41.070Z,100922.41
2022-12-24T11:58:20.658Z,100923.75
2022-12-24T12:00:51.344Z,100924.06
2022-12-24T12:03:28.807Z,100927.31
2022-12-24T12:06:01.581Z,100918.22
2022-12-24T12:08:31.241Z,100910.91
2022-12-24T12:11:00.029Z,100914.94
2022-12-24T12:13:33.341Z,100916.22
2022-12-24T12:16:17.641Z,100908.63
2022-12-24T12:18:52.162Z,100915.19
2022-12-24T12:21:25.782Z,100916.72
2022-12-24T12:23:58.561Z,100928.53
2022-12-24T12:26:28.765Z,100934.66
2022-12-24T12:29:00.134Z,100938.28
2022-12-24T12:31:34.368Z,100937.59
2022-12-24T12:34:07.215Z,100938.44
2022-12-24T12:36:43.357Z,100924.41
2022-12-24T12:39:12.287Z,100933.97
2022-12-24T12:41:51.682Z,100930.53
2022-12-24T12:44:42.369Z,100931.19
2022-12-24T12:47:32.348Z,100940.78
2022-12-24T12:50:10.256Z,100938.13
2022-12-24T12:52:55.168Z,100939.94
2022-12-24T12:55:37.943Z,100944.84
2022-12-24T12:58:11.328Z,100954.72
2022-12-24T13:00:45.238Z,100953.44
2022-12-24T13:03:41.616Z,100960.06
2022-12-24T13:06:25.583Z,100951.34
2022-12-24T13:09:13.643Z,100949.16
2022-12-24T13:11:53.328Z,100942.72
2022-12-24T13:14:41.519Z,100945.53
2022-12-24T13:17:34.304Z,100951.84
2022-12-24T13:20:25.626Z,100961.66
2022-12-24T13:22:59.095Z,100964.44
2022-12-24T13:25:38.510Z,100969.59
2022-12-24T13:28:37.119Z,100971.38
2022-12-24T13:31:29.921Z,100982.63
2022-12-24T13:34:19.607Z,100986.88
2022-12-24T13:37:20.874Z,100997.13
2022-12-24T13:40:16.596Z,100995.34
2022-12-24T13:42:53.061Z,100981.28
2022-12-24T13:45:44.541Z,100982.56
2022-12-24T13:48:26.851Z,100986.56
2022-12-24T13:50:56.955Z,100986.81
2022-12-24T13:53:29.809Z,100989.56
2022-12-24T13:56:00.456Z,101007.94
2022-12-24T13:58:29.664Z,101000.81
2022-12-24T14:01:00.224Z,100999.31
2022-12-24T14:03:33.495Z,101009.03
2022-12-24T14:06:06.353Z,101006.03
2022-12-24T14:08:39.829Z,101018.56
2022-12-24T14:11:11.476Z,101017.06
2022-12-24T14:14:12.690Z,101020.81
2022-12-24T14:16:47.579Z,101015.03
2022-12-24T14:19:17.916Z,101010.72
2022-12-24T14:21:53.984Z,101018.34
2022-12-24T14:24:26.269Z,101036.66
2022-12-24T14:26:57.948Z,101035.16
2022-12-24T14:29:31.074Z,101046.56
2022-12-24T14:32:04.023Z,101039.59
2022-12-24T14:34:31.924Z,101043.78
2022-12-24T14:37:04.508Z,101035.84
2022-12-24T14:39:35.116Z,101046.25
2022-12-24T14:42:11.619Z,101055.00
2022-12-24T14:44:47.260Z,101040.06
2022-12-24T14:47:26.712Z,101030.19
2022-12-24T14:50:05.875Z,101034.78
2022-12-24T14:53:05.629Z,101041.75
2022-12-24T14:55:31.287Z,101048.13
2022-12-24T14:58:25.231Z,101049.97
2022-12-24T15:00:57.213Z,101051.09
2022-12-24T15:03:27.075Z,101047.44
2022-12-24T15:05:57.595Z,101048.28
2022-12-24T15:08:30.531Z,101048.97
2022-12-24T15:11:02.645Z,101050.75
2022-12-24T15:13:36.658Z,101057.19
2022-12-24T15:16:09.034Z,101064.97
2022-12-24T15:18:39.246Z,101060.94
2022-12-24T15:21:15.555Z,101059.00
2022-12-24T15:23:48.440Z,101065.09
2022-12-24T15:26:21.930Z,101074.69
2022-12-24T15:28:49.925Z,101077.50
2022-12-24T15:31:21.171Z,101074.69
2022-12-24T15:33:50.400Z,101080.81
2022-12-24T15:36:25.038Z,101085.94
2022-12-24T15:38:55.224Z,101077.03
2022-12-24T15:41:25.115Z,101080.66
2022-12-24T15:43:55.524Z,101087.59
2022-12-24T15:46:27.238Z,101089.28
2022-12-24T15:48:57.021Z,101084.97
2022-12-24T15:51:27.493Z,101090.91
2022-12-24T15:54:01.575Z,101089.94
2022-12-24T15:56:33.204Z,101092.41
2022-12-24T15:59:31.094Z,101102.84
2022-12-24T16:02:27.332Z,101102.69
2022-12-24T16:04:55.140Z,101085.88
2022-12-24T16:07:47.122Z,101086.16
2022-12-24T16:10:25.150Z,101089.47
2022-12-24T16:12:53.131Z,101082.69
2022-12-24T16:15:21.308Z,101088.97
2022-12-24T16:17:52.983Z,101084.50
2022-12-24T16:20:23.077Z,101093.13
2022-12-24T16:22:51.480Z,101089.47
2022-12-24T16:25:27.240Z,101087.69
2022-12-24T16:27:59.806Z,101092.13
2022-12-24T16:30:27.902Z,101100.88
2022-12-24T16:32:56.956Z,101099.38
2022-12-24T16:35:28.098Z,101108.13
2022-12-24T16:37:56.160Z,101118.53
2022-12-24T16:40:27.630Z,101111.75
2022-12-24T16:43:14.556Z,101118.53
2022-12-24T16:45:42.792Z,101117.56
2022-12-24T16:48:20.592Z,101114.50
2022-12-24T16:50:48.252Z,101107.38
2022-12-24T16:53:17.804Z,101116.84
2022-12-24T16:55:47.513Z,101111.38
2022-12-24T16:58:17.191Z,101119.00
2022-12-24T17:00:45.609Z,101109.97
2022-12-24T17:03:15.120Z,101112.47
2022-12-24T17:05:44.387Z,101122.88
2022-12-24T17:08:13.161Z,101128.84
2022-12-24T17:10:41.232Z,101138.41
2022-12-24T17:13:08.839Z,101133.97
2022-12-24T17:15:36.420Z,101133.00
2022-12-24T17:18:04.234Z,101135.66
2022-12-24T17:20:33.140Z,101137.00
2022-12-24T17:23:01.490Z,101129.91
2022-12-24T17:25:29.051Z,101130.72
2022-12-24T17:27:56.590Z,101140.16
2022-12-24T17:30:24.151Z,101126.13
2022-12-24T17:32:52.079Z,101132.09
2022-12-24T17:35:19.676Z,101141.66
2022-12-24T17:37:48.603Z,101139.72
2022-12-24T17:40:16.506Z,101134.44
2022-12-24T17:42:44.105Z,101147.78
2022-12-24T17:45:12.032Z,101137.22
2022-12-24T17:47:39.600Z,101146.00
2022-12-24T17:50:08.354Z,101147.66
2022-12-24T17:52:35.928Z,101144.00
2022-12-24T17:55:05.692Z,101145.81
2022-12-24T17:57:33.291Z,101153.63
2022-12-24T18:00:00.862Z,101155.97
2022-12-24T18:02:28.666Z,101158.44
2022-12-24T18:04:56.333Z,101157.34
2022-12-24T18:07:23.932Z,101157.84
2022-12-24T18:09:51.490Z,101168.94
2022-12-24T18:12:20.472Z,101157.09
2022-12-24T18:14:47.999Z,101166.41
2022-12-24T18:17:15.571Z,101158.84
2022-12-24T18:19:43.211Z,101167.13
2022-12-24T18:22:10.796Z,101165.88
2022-12-24T18:24:38.374Z,101166.22
2022-12-24T18:27:05.982Z,101168.56
2022-12-24T18:29:35.211Z,101169.09
2022-12-24T18:32:02.769Z,101171.44
2022-12-24T18:34:30.360Z,101166.69
2022-12-24T18:36:58.245Z,101173.47
2022-12-24T18:39:26.351Z,101170.53
2022-12-24T18:41:53.889Z,101171.84
2022-12-24T18:44:25.348Z,101170.88
2022-12-24T18:46:54.790Z,101175.03
2022-12-24T18:49:22.448Z,101177.53
2022-12-24T18:51:50.027Z,101185.16
2022-12-24T18:54:17.612Z,101184.03
2022-12-24T18:56:45.181Z,101190.81
2022-12-24T18:59:12.808Z,101190.69
2022-12-24T19:01:40.582Z,101194.81
2022-12-24T19:04:10.341Z,101189.53
2022-12-24T19:06:38.200Z,101194.66
2022-12-24T19:09:05.787Z,101192.72
2022-12-24T19:11:34.895Z,101195.34
2022-12-24T19:14:03.719Z,101200.47
2022-12-24T19:16:34.000Z,101195.19
2022-12-24T19:19:02.992Z,101200.19
2022-12-24T19:21:32.075Z,101201.97
2022-12-24T19:23:59.667Z,101205.31
2022-12-24T19:26:27.848Z,101202.69
2022-12-24T19:28:55.804Z,101206.97
2022-12-24T19:31:25.656Z,101210.44
2022-12-24T19:33:55.451Z,101206.84
2022-12-24T19:36:25.303Z,101216.44
2022-12-24T19:38:54.647Z,101214.50
2022-12-24T19:41:24.569Z,101207.38
2022-12-24T19:43:53.566Z,101208.06
2022-12-24T19:46:23.136Z,101216.66
2022-12-24T19:48:52.499Z,101209.38
2022-12-24T19:51:20.967Z,101215.69
2022-12-24T19:53:49.052Z,101214.69
2022-12-24T19:56:19.512Z,101220.81
2022-12-24T19:58:47.742Z,101228.63
2022-12-24T20:01:17.853Z,101232.75
2022-12-24T20:03:45.836Z,101240.53
2022-12-24T20:06:14.400Z,101234.25
2022-12-24T20:08:42.192Z,101235.25
2022-12-24T20:11:13.875Z,101233.28
2022-12-24T20:13:43.154Z,101230.63
2022-12-24T20:16:14.361Z,101232.97
2022-12-24T20:18:42.039Z,101228.00
2022-12-24T20:21:12.583Z,101233.28
2022-12-24T20:23:41.002Z,101236.91
2022-12-24T20:26:11.675Z,101233.28
2022-12-24T20:28:39.897Z,101235.09
2022-12-24T20:31:16.578Z,101235.94
2022-12-24T20:33:45.736Z,101240.41
2022-12-24T20:36:15.831Z,101241.38
2022-12-24T20:38:43.515Z,101240.69
2022-12-24T20:41:12.239Z,101254.78
2022-12-24T20:43:47.343Z,101266.19
2022-12-24T20:46:18.870Z,101271.31
2022-12-24T20:48:47.120Z,101270.66
2022-12-24T20:51:23.406Z,101280.25
2022-12-24T20:53:52.534Z,101268.00
2022-12-24T20:56:20.363Z,101276.94
2022-12-24T20:58:47.970Z,101291.97
2022-12-24T21:01:19.945Z,101297.97
2022-12-24T21:03:47.788Z,101295.16
2022-12-24T21:06:17.620Z,101309.91
2022-12-24T21:08:45.571Z,101306.09
2022-12-24T21:11:27.193Z,101304.16
2022-12-24T21:13:54.907Z,101310.97
2022-12-24T21:16:23.840Z,101308.44
2022-12-24T21:18:51.801Z,101300.38
2022-12-24T21:21:19.469Z,101303.00
2022-12-24T21:23:47.095Z,101307.16
2022-12-24T21:26:14.722Z,101307.16
2022-12-24T21:28:42.581Z,101321.25
2022-12-24T21:31:11.152Z,101320.56
2022-12-24T21:33:40.235Z,101308.97
2022-12-24T21:36:08.479Z,101312.47
2022-12-24T21:38:36.326Z,101316.78
2022-12-24T21:41:06.218Z,101316.91
2022-12-24T21:43:35.419Z,101319.44
2022-12-24T21:46:07.512Z,101316.78
2022-12-24T21:48:52.696Z,101319.03
2022-12-24T21:51:21.738Z,101326.97
2022-12-24T21:54:21.361Z,101332.44
2022-12-24T21:57:06.214Z,101324.94
2022-12-24T21:59:33.858Z,101325.78
2022-12-24T22:02:01.940Z,101328.28
2022-12-24T22:04:31.445Z,101325.66
2022-12-24T22:07:17.929Z,101336.06
2022-12-24T22:10:03.203Z,101326.31
2022-12-24T22:12:32.689Z,101334.25
2022-12-24T22:15:00.707Z,101332.44
2022-12-24T22:17:28.582Z,101344.00
2022-12-24T22:19:56.506Z,101345.81
2022-12-24T22:22:25.469Z,101351.13
2022-12-24T22:24:53.096Z,101352.44
2022-12-24T22:27:20.735Z,101357.56
2022-12-24T22:29:48.299Z,101357.72
2022-12-24T22:32:16.226Z,101359.38
2022-12-24T22:34:43.754Z,101358.38
2022-12-24T22:37:11.398Z,101357.41
2022-12-24T22:39:40.314Z,101374.16
2022-12-24T22:42:07.918Z,101366.88
2022-12-24T22:44:36.261Z,101376.63
2022-12-24T22:47:03.832Z,101382.75
2022-12-24T22:49:31.584Z,101383.72
2022-12-24T22:51:59.227Z,101383.72
2022-12-24T22:54:26.999Z,101382.09
2022-12-24T22:56:55.944Z,101378.59
2022-12-24T22:59:23.551Z,101373.44
2022-12-24T23:01:52.522Z,101377.22
2022-12-24T23:04:20.614Z,101371.25
2022-12-24T23:06:48.559Z,101368.75
2022-12-24T23:09:17.485Z,101369.59
2022-12-24T23:11:45.905Z,101372.22
2022-12-24T23:14:35.470Z,101372.09
2022-12-24T23:17:03.140Z,101374.03
2022-12-24T23:19:33.379Z,101378.19
2022-12-24T23:22:01.691Z,101380.19
2022-12-24T23:24:29.966Z,101389.41
2022-12-24T23:26:58.441Z,101389.25
2022-12-24T23:29:27.384Z,101398.88
2022-12-24T23:31:55.094Z,101397.88
2022-12-24T23:34:22.660Z,101404.16
2022-12-24T23:36:50.198Z,101394.38
2022-12-24T23:39:17.847Z,101411.28
2022-12-24T23:41:45.778Z,101409.59
2022-12-24T23:44:13.358Z,101412.13
2022-12-24T23:46:42.399Z,101408.63
2022-12-24T23:49:13.787Z,101409.47
2022-12-24T23:51:41.386Z,101405.16
2022-12-24T23:54:09.094Z,101411.09
2022-12-24T23:56:36.837Z,101418.91
2022-12-24T23:59:04.842Z,101415.25
